Milligan College, Tennessee
Current Conditions -  °F | °C
As of 11:15 AM on Monday 26 Jan 2015 (Local Time) from K0A9 Reporting Station
Light Rain Light Rain  
Wind Chill: 29°   Ceiling: 1100
Heat Index: 36°   Visibility: 10mi
Dew Point: 36°   Wind: 8mph
Humidity: 100%   Direction: 250°WSW
Pressure: 29.72"   Gusts: NA
Location:  36.3°N, 82.29°W
Report Text: K0A9 261615Z AUTO 25007KT 10SM -RA OVC011 02/02 A2972 RMK
Loading
Personal Weather Stations






























Interactive Weather Map New forecast layout! Learn more

10-Day Weather Forecast

Advertisements
Track Severe Weather on mobile